Time;durP1;ratioP1;P1;durP2;ratioP2;P2;SDS_P1;SDS_P2;PMS_P1;PMS_P2;Temp;Humidity;BMP_temperature;BMP_pressure;BME280_temperature;BME280_humidity;BME280_pressure;Samples;Min_cycle;Max_cycle;Signal;HPM_P1;HPM_P2
2022/09/19 00:01:55;;;;;;;;;;;;;;;;;;5012650;28;19913;-76
2022/09/19 00:04:21;;;;;;;;;;;;;;;;;;5012378;28;20406;-76
2022/09/19 00:06:46;;;;;;;;;;;;;;;;;;5012461;28;20379;-78
2022/09/19 00:09:12;;;;;;;;;;;;;;;;;;5012801;28;20040;-76
2022/09/19 00:11:37;;;;;;;;;;;;;;;;;;4996491;28;19968;-77
2022/09/19 00:14:03;;;;;;;;;;;;;;;;;;5011696;28;20401;-76
2022/09/19 00:16:29;;;;;;;;;;;;;;;;;;5020456;28;19918;-77
2022/09/19 00:18:54;;;;;;;;;;;;;;;;;;5012002;28;20288;-78
2022/09/19 00:21:19;;;;;;;;;;;;;;;;;;5012429;28;20395;-77
2022/09/19 00:26:29;;;;;;;;;;;;;;;;;;4996203;28;19917;-79
2022/09/19 00:28:55;;;;;;;;;;;;;;;;;;5011985;28;20042;-77
2022/09/19 00:31:20;;;;;;;;;;;;;;;;;;5011705;28;19914;-78
2022/09/19 00:33:46;;;;;;;;;;;;;;;;;;5012312;28;19948;-78
2022/09/19 00:36:12;;;;;;;;;;;;;;;;;;5009373;28;20369;-76
2022/09/19 00:38:37;;;;;;;;;;;;;;;;;;5008312;28;19918;-78
2022/09/19 00:41:02;;;;;;;;;;;;;;;;;;5012066;28;19924;-77
2022/09/19 00:43:28;;;;;;;;;;;;;;;;;;5013540;28;19913;-78
2022/09/19 00:45:56;;;;;;;;;;;;;;;;;;5012688;28;19913;-77
2022/09/19 00:48:22;;;;;;;;;;;;;;;;;;5013298;28;19913;-80
2022/09/19 00:50:48;;;;;;;;;;;;;;;;;;5013566;28;19914;-77
2022/09/19 00:53:13;;;;;;;;;;;;;;;;;;5012989;28;19914;-78
2022/09/19 00:55:39;;;;;;;;;;;;;;;;;;5013035;28;19921;-79
2022/09/19 00:58:05;;;;;;;;;;;;;;;;;;5013492;28;19940;-79
2022/09/19 01:00:32;;;;;;;;;;;;;;;;;;5014817;28;20004;-79
2022/09/19 01:02:57;;;;;;;;;;;;;;;;;;5012165;28;20386;-77
2022/09/19 01:05:23;;;;;;;;;;;;;;;;;;5014246;28;20000;-77
2022/09/19 01:07:48;;;;;;;;;;;;;;;;;;5015113;28;19924;-78
2022/09/19 01:10:14;;;;;;;;;;;;;;;;;;5013235;28;19956;-79
2022/09/19 01:12:47;;;;;;;;;;;;;;;;;;5013468;28;19914;-78
2022/09/19 01:15:13;;;;;;;;;;;;;;;;;;5002057;28;19914;-78
2022/09/19 01:17:42;;;;;;;;;;;;;;;;;;4995257;28;19928;-78
2022/09/19 01:20:08;;;;;;;;;;;;;;;;;;4995700;28;19913;-77
2022/09/19 01:22:34;;;;;;;;;;;;;;;;;;5013139;28;19914;-77
2022/09/19 01:25:00;;;;;;;;;;;;;;;;;;5012274;28;20038;-79
2022/09/19 01:27:26;;;;;;;;;;;;;;;;;;5012620;28;19914;-78
2022/09/19 01:29:52;;;;;;;;;;;;;;;;;;5012298;28;19936;-77
2022/09/19 01:32:18;;;;;;;;;;;;;;;;;;5012100;28;20403;-77
2022/09/19 01:34:44;;;;;;;;;;;;;;;;;;5011411;28;19921;-77
2022/09/19 01:39:47;;;;;;;;;;;;;;;;;;4989612;28;19926;-77
2022/09/19 01:42:13;;;;;;;;;;;;;;;;;;4992416;28;19913;-77
2022/09/19 01:44:38;;;;;;;;;;;;;;;;;;4994505;28;20329;-77
2022/09/19 01:47:04;;;;;;;;;;;;;;;;;;4975525;28;19920;-77
2022/09/19 01:49:30;;;;;;;;;;;;;;;;;;4995626;28;19918;-77
2022/09/19 01:51:55;;;;;;;;;;;;;;;;;;4996323;28;20196;-78
2022/09/19 01:54:21;;;;;;;;;;;;;;;;;;4975359;28;20288;-77
2022/09/19 01:56:52;;;;;;;;;;;;;;;;;;4990958;28;20012;-77
2022/09/19 01:59:18;;;;;;;;;;;;;;;;;;4975112;28;20483;-77
2022/09/19 02:01:43;;;;;;;;;;;;;;;;;;4998547;28;19922;-77
2022/09/19 02:04:09;;;;;;;;;;;;;;;;;;4997270;28;19920;-78
2022/09/19 02:06:35;;;;;;;;;;;;;;;;;;4993969;28;20284;-77
2022/09/19 02:09:01;;;;;;;;;;;;;;;;;;4992947;28;19917;-78
2022/09/19 02:11:44;;;;;;;;;;;;;;;;;;4997481;28;19914;-77
2022/09/19 02:14:13;;;;;;;;;;;;;;;;;;4980515;28;19914;-76
2022/09/19 02:16:38;;;;;;;;;;;;;;;;;;4996382;28;19914;-77
2022/09/19 02:19:04;;;;;;;;;;;;;;;;;;4996173;28;20002;-77
2022/09/19 02:21:30;;;;;;;;;;;;;;;;;;5003827;28;19980;-77
2022/09/19 02:23:59;;;;;;;;;;;;;;;;;;5009097;28;19945;-77
2022/09/19 02:26:24;;;;;;;;;;;;;;;;;;5012645;28;19914;-76
2022/09/19 02:28:52;;;;;;;;;;;;;;;;;;4995240;28;19977;-77
2022/09/19 02:31:19;;;;;;;;;;;;;;;;;;5003964;28;19914;-77
2022/09/19 02:33:48;;;;;;;;;;;;;;;;;;5002314;28;19941;-77
2022/09/19 02:36:17;;;;;;;;;;;;;;;;;;5002666;28;19914;-77
2022/09/19 02:38:43;;;;;;;;;;;;;;;;;;4981613;28;20060;-77
2022/09/19 02:41:10;;;;;;;;;;;;;;;;;;4996655;28;19918;-77
2022/09/19 02:43:36;;;;;;;;;;;;;;;;;;4995440;28;19937;-78
2022/09/19 02:46:02;;;;;;;;;;;;;;;;;;4994773;28;19918;-78
2022/09/19 02:48:28;;;;;;;;;;;;;;;;;;4995581;28;20389;-76
2022/09/19 02:50:58;;;;;;;;;;;;;;;;;;4994779;28;20396;-76
2022/09/19 02:53:26;;;;;;;;;;;;;;;;;;4995350;28;20373;-78
2022/09/19 02:55:56;;;;;;;;;;;;;;;;;;4999399;28;19929;-77
2022/09/19 02:58:22;;;;;;;;;;;;;;;;;;4997273;28;19922;-77
2022/09/19 03:00:52;;;;;;;;;;;;;;;;;;4994548;28;20362;-77
2022/09/19 03:06:02;;;;;;;;;;;;;;;;;;4994332;28;19942;-76
2022/09/19 03:08:33;;;;;;;;;;;;;;;;;;4993013;28;19964;-77
2022/09/19 03:10:59;;;;;;;;;;;;;;;;;;4994232;28;19922;-76
2022/09/19 03:13:31;;;;;;;;;;;;;;;;;;4994069;28;19960;-77
2022/09/19 03:15:57;;;;;;;;;;;;;;;;;;4997634;28;20278;-77
2022/09/19 03:18:30;;;;;;;;;;;;;;;;;;4995084;28;20427;-76
2022/09/19 03:20:55;;;;;;;;;;;;;;;;;;4993461;28;19917;-77
2022/09/19 03:23:21;;;;;;;;;;;;;;;;;;4992758;28;19963;-77
2022/09/19 03:25:47;;;;;;;;;;;;;;;;;;4993178;28;19913;-77
2022/09/19 03:28:12;;;;;;;;;;;;;;;;;;4993711;28;20353;-77
2022/09/19 03:30:37;;;;;;;;;;;;;;;;;;4993601;28;19918;-77
2022/09/19 03:33:03;;;;;;;;;;;;;;;;;;4993360;28;19914;-77
2022/09/19 03:35:28;;;;;;;;;;;;;;;;;;4994531;28;19992;-77
2022/09/19 03:37:54;;;;;;;;;;;;;;;;;;4993328;28;19957;-76
2022/09/19 03:40:22;;;;;;;;;;;;;;;;;;4993425;28;20012;-76
2022/09/19 03:42:50;;;;;;;;;;;;;;;;;;4992413;28;19914;-76
2022/09/19 03:45:16;;;;;;;;;;;;;;;;;;4994875;28;19941;-76
2022/09/19 03:47:42;;;;;;;;;;;;;;;;;;4992338;28;19914;-76
2022/09/19 03:50:08;;;;;;;;;;;;;;;;;;5001716;28;20265;-77
2022/09/19 03:52:47;;;;;;;;;;;;;;;;;;4978806;28;19913;-76
2022/09/19 03:55:12;;;;;;;;;;;;;;;;;;4995368;28;19984;-77
2022/09/19 03:57:39;;;;;;;;;;;;;;;;;;4977814;28;19913;-77
2022/09/19 04:00:05;;;;;;;;;;;;;;;;;;4995212;28;19914;-77
2022/09/19 04:02:42;;;;;;;;;;;;;;;;;;4993609;28;20294;-76
2022/09/19 04:05:08;;;;;;;;;;;;;;;;;;4993961;28;19914;-77
2022/09/19 04:07:33;;;;;;;;;;;;;;;;;;4993830;28;19998;-77
2022/09/19 04:09:59;;;;;;;;;;;;;;;;;;4993911;28;19910;-77
2022/09/19 04:12:24;;;;;;;;;;;;;;;;;;4995611;28;19961;-77
2022/09/19 04:14:50;;;;;;;;;;;;;;;;;;4999815;28;19921;-77
2022/09/19 04:17:16;;;;;;;;;;;;;;;;;;4980745;28;19921;-77
2022/09/19 04:19:42;;;;;;;;;;;;;;;;;;4996436;28;19957;-77
2022/09/19 04:22:26;;;;;;;;;;;;;;;;;;4998727;28;20005;-77
2022/09/19 04:25:20;;;;;;;;;;;;;;;;;;5014107;28;19917;-79
2022/09/19 04:28:02;;;;;;;;;;;;;;;;;;4994860;28;19913;-76
2022/09/19 04:30:27;;;;;;;;;;;;;;;;;;4960884;28;20004;-76
2022/09/19 04:32:55;;;;;;;;;;;;;;;;;;4975306;28;19921;-77
2022/09/19 04:35:22;;;;;;;;;;;;;;;;;;4991858;28;19914;-77
2022/09/19 04:37:48;;;;;;;;;;;;;;;;;;4962130;28;19972;-77
2022/09/19 04:40:15;;;;;;;;;;;;;;;;;;4985101;28;20377;-77
2022/09/19 04:42:41;;;;;;;;;;;;;;;;;;4990272;28;19963;-77
2022/09/19 04:45:07;;;;;;;;;;;;;;;;;;4991406;28;20016;-77
2022/09/19 04:47:54;;;;;;;;;;;;;;;;;;4976264;28;19920;-77
2022/09/19 04:50:20;;;;;;;;;;;;;;;;;;4994015;28;19949;-77
2022/09/19 04:52:56;;;;;;;;;;;;;;;;;;4993116;28;20373;-77
2022/09/19 04:55:22;;;;;;;;;;;;;;;;;;4992241;28;20065;-77
2022/09/19 04:57:47;;;;;;;;;;;;;;;;;;4991560;28;19999;-77
2022/09/19 05:00:12;;;;;;;;;;;;;;;;;;4991280;28;19929;-77
2022/09/19 05:02:41;;;;;;;;;;;;;;;;;;4991131;28;19918;-76
2022/09/19 05:05:06;;;;;;;;;;;;;;;;;;4976537;28;19921;-77
2022/09/19 05:07:35;;;;;;;;;;;;;;;;;;4992062;28;19914;-76
2022/09/19 05:10:03;;;;;;;;;;;;;;;;;;4975454;28;19918;-78
2022/09/19 05:12:34;;;;;;;;;;;;;;;;;;4990992;28;19949;-76
2022/09/19 05:15:00;;;;;;;;;;;;;;;;;;4975587;28;19972;-76
2022/09/19 05:17:25;;;;;;;;;;;;;;;;;;4991793;28;20332;-77
2022/09/19 05:19:51;;;;;;;;;;;;;;;;;;4991522;28;20443;-78
2022/09/19 05:22:17;;;;;;;;;;;;;;;;;;4991279;28;19925;-76
2022/09/19 05:24:43;;;;;;;;;;;;;;;;;;4991409;28;19913;-76
2022/09/19 05:27:08;;;;;;;;;;;;;;;;;;4991501;28;20333;-76
2022/09/19 05:29:39;;;;;;;;;;;;;;;;;;4990083;28;19921;-77
2022/09/19 05:32:05;;;;;;;;;;;;;;;;;;4974164;28;20364;-77
2022/09/19 05:34:56;;;;;;;;;;;;;;;;;;4990224;28;19957;-76
2022/09/19 05:37:40;;;;;;;;;;;;;;;;;;4929759;28;1784621;-76
2022/09/19 05:40:15;;;;;;;;;;;;;;;;;;4975088;28;19914;-77
2022/09/19 05:43:02;;;;;;;;;;;;;;;;;;4993542;28;19914;-77
2022/09/19 05:45:28;;;;;;;;;;;;;;;;;;4993313;28;19918;-77
2022/09/19 05:47:54;;;;;;;;;;;;;;;;;;4995213;28;19913;-76
2022/09/19 05:50:22;;;;;;;;;;;;;;;;;;4994990;28;20387;-76
2022/09/19 05:55:32;;;;;;;;;;;;;;;;;;4995642;28;20000;-76
2022/09/19 05:58:36;;;;;;;;;;;;;;;;;;4994585;28;20389;-77
2022/09/19 06:01:01;;;;;;;;;;;;;;;;;;4995013;28;19964;-76
2022/09/19 06:03:27;;;;;;;;;;;;;;;;;;4994772;28;19913;-77
2022/09/19 06:05:56;;;;;;;;;;;;;;;;;;4993868;28;19920;-77
2022/09/19 06:08:22;;;;;;;;;;;;;;;;;;4995212;28;20357;-77
2022/09/19 06:10:48;;;;;;;;;;;;;;;;;;4994735;28;19949;-77
2022/09/19 06:13:13;;;;;;;;;;;;;;;;;;4994477;28;19952;-77
2022/09/19 06:15:38;;;;;;;;;;;;;;;;;;4994234;28;19914;-77
2022/09/19 06:18:04;;;;;;;;;;;;;;;;;;4977996;28;19917;-77
2022/09/19 06:20:53;;;;;;;;;;;;;;;;;;4996784;28;19998;-77
2022/09/19 06:23:32;;;;;;;;;;;;;;;;;;4994569;28;19993;-76
2022/09/19 06:25:57;;;;;;;;;;;;;;;;;;4995399;28;19956;-76
2022/09/19 06:28:23;;;;;;;;;;;;;;;;;;4995558;28;19921;-76
2022/09/19 06:31:03;;;;;;;;;;;;;;;;;;4994239;28;19914;-77
2022/09/19 06:34:01;;;;;;;;;;;;;;;;;;4971766;28;20310;-77
2022/09/19 06:36:34;;;;;;;;;;;;;;;;;;4994240;28;19914;-77
2022/09/19 06:38:59;;;;;;;;;;;;;;;;;;4993558;28;19932;-76
2022/09/19 06:41:45;;;;;;;;;;;;;;;;;;4994089;28;19975;-77
2022/09/19 06:44:20;;;;;;;;;;;;;;;;;;4994085;28;19920;-76
2022/09/19 06:47:05;;;;;;;;;;;;;;;;;;4995151;28;19914;-76
2022/09/19 06:49:52;;;;;;;;;;;;;;;;;;4994913;28;19929;-77
2022/09/19 06:52:29;;;;;;;;;;;;;;;;;;4985562;28;19914;-76
2022/09/19 06:54:55;;;;;;;;;;;;;;;;;;4993344;28;19914;-76
2022/09/19 06:57:20;;;;;;;;;;;;;;;;;;4992376;28;20391;-76
2022/09/19 06:59:46;;;;;;;;;;;;;;;;;;4993698;28;19920;-76
2022/09/19 07:02:12;;;;;;;;;;;;;;;;;;4977580;28;19913;-77
2022/09/19 07:04:38;;;;;;;;;;;;;;;;;;4993666;28;19914;-76
2022/09/19 07:07:11;;;;;;;;;;;;;;;;;;4993963;28;19917;-77
2022/09/19 07:09:47;;;;;;;;;;;;;;;;;;4993822;28;19913;-76
2022/09/19 07:12:12;;;;;;;;;;;;;;;;;;4993293;28;20396;-77
2022/09/19 07:14:38;;;;;;;;;;;;;;;;;;4995296;28;19917;-76
2022/09/19 07:17:04;;;;;;;;;;;;;;;;;;4993130;28;19913;-77
2022/09/19 07:19:29;;;;;;;;;;;;;;;;;;4993112;28;19913;-76
2022/09/19 07:22:30;;;;;;;;;;;;;;;;;;5011089;28;19928;-77
2022/09/19 07:25:14;;;;;;;;;;;;;;;;;;4982241;28;19949;-76
2022/09/19 07:27:50;;;;;;;;;;;;;;;;;;4992500;28;20008;-76
2022/09/19 07:30:15;;;;;;;;;;;;;;;;;;4992291;28;19962;-76
2022/09/19 07:32:41;;;;;;;;;;;;;;;;;;4957045;28;19914;-77
2022/09/19 07:35:06;;;;;;;;;;;;;;;;;;4976916;28;19914;-77
2022/09/19 07:37:31;;;;;;;;;;;;;;;;;;4993910;28;20016;-79
2022/09/19 07:40:08;;;;;;;;;;;;;;;;;;4992475;28;20011;-78
2022/09/19 07:42:51;;;;;;;;;;;;;;;;;;4970624;28;20290;-75
2022/09/19 07:45:29;;;;;;;;;;;;;;;;;;4989504;28;19914;-77
2022/09/19 07:48:24;;;;;;;;;;;;;;;;;;4996839;28;19967;-76
2022/09/19 07:51:04;;;;;;;;;;;;;;;;;;4992167;28;19918;-76
2022/09/19 07:53:35;;;;;;;;;;;;;;;;;;4992375;28;19914;-77
2022/09/19 07:56:01;;;;;;;;;;;;;;;;;;4992452;28;20262;-75
2022/09/19 07:58:26;;;;;;;;;;;;;;;;;;4992379;28;19925;-76
2022/09/19 08:00:56;;;;;;;;;;;;;;;;;;4992243;28;19921;-76
2022/09/19 08:03:44;;;;;;;;;;;;;;;;;;5001913;28;19918;-75
2022/09/19 08:06:09;;;;;;;;;;;;;;;;;;4994048;28;19978;-75
2022/09/19 08:08:35;;;;;;;;;;;;;;;;;;4976112;28;19921;-76
2022/09/19 08:11:05;;;;;;;;;;;;;;;;;;4991983;28;20202;-75
2022/09/19 08:13:30;;;;;;;;;;;;;;;;;;4985640;28;20616;-76
2022/09/19 08:15:57;;;;;;;;;;;;;;;;;;4991976;28;20009;-76
2022/09/19 08:18:26;;;;;;;;;;;;;;;;;;4992105;28;19922;-75
2022/09/19 08:20:52;;;;;;;;;;;;;;;;;;4991806;28;19917;-76
2022/09/19 08:23:18;;;;;;;;;;;;;;;;;;4991736;28;19949;-75
2022/09/19 08:25:46;;;;;;;;;;;;;;;;;;4991764;28;19914;-75
2022/09/19 08:28:12;;;;;;;;;;;;;;;;;;4991994;28;19913;-76
2022/09/19 08:30:38;;;;;;;;;;;;;;;;;;4993133;28;19984;-76
2022/09/19 08:33:06;;;;;;;;;;;;;;;;;;4991367;28;19960;-75
2022/09/19 08:35:39;;;;;;;;;;;;;;;;;;4994374;28;19925;-78
2022/09/19 08:38:05;;;;;;;;;;;;;;;;;;4991491;28;19917;-76
2022/09/19 08:40:31;;;;;;;;;;;;;;;;;;4990837;28;19965;-75
2022/09/19 08:42:57;;;;;;;;;;;;;;;;;;4991638;28;19921;-78
2022/09/19 08:45:23;;;;;;;;;;;;;;;;;;4978050;28;19913;-79
2022/09/19 08:47:48;;;;;;;;;;;;;;;;;;5006850;28;19985;-76
2022/09/19 08:50:14;;;;;;;;;;;;;;;;;;5007997;28;19917;-77
2022/09/19 08:52:42;;;;;;;;;;;;;;;;;;5004654;28;19921;-77
2022/09/19 08:55:10;;;;;;;;;;;;;;;;;;4981589;28;20364;-78
2022/09/19 08:57:36;;;;;;;;;;;;;;;;;;4990295;28;19918;-80
2022/09/19 09:00:05;;;;;;;;;;;;;;;;;;4993090;28;20381;-78
2022/09/19 09:02:31;;;;;;;;;;;;;;;;;;4991825;28;19971;-77
2022/09/19 09:05:02;;;;;;;;;;;;;;;;;;4991392;28;19918;-77
2022/09/19 09:07:27;;;;;;;;;;;;;;;;;;4991431;28;19921;-77
2022/09/19 09:10:12;;;;;;;;;;;;;;;;;;4992316;28;19920;-77
2022/09/19 09:12:40;;;;;;;;;;;;;;;;;;4991064;28;19946;-78
2022/09/19 09:15:06;;;;;;;;;;;;;;;;;;4990155;28;19953;-78
2022/09/19 09:17:32;;;;;;;;;;;;;;;;;;4990261;28;19964;-78
2022/09/19 09:19:57;;;;;;;;;;;;;;;;;;4991405;28;19914;-79
2022/09/19 09:22:24;;;;;;;;;;;;;;;;;;4992266;28;19941;-77
2022/09/19 09:25:00;;;;;;;;;;;;;;;;;;4993977;28;19921;-77
2022/09/19 09:27:33;;;;;;;;;;;;;;;;;;4992582;28;19914;-77
2022/09/19 09:30:03;;;;;;;;;;;;;;;;;;4991401;28;19968;-78
2022/09/19 09:32:32;;;;;;;;;;;;;;;;;;4989431;28;19921;-77
2022/09/19 09:34:58;;;;;;;;;;;;;;;;;;4985245;28;19937;-78
2022/09/19 09:37:23;;;;;;;;;;;;;;;;;;4986373;28;20381;-77
2022/09/19 09:40:09;;;;;;;;;;;;;;;;;;4967263;28;19926;-78
2022/09/19 09:42:37;;;;;;;;;;;;;;;;;;4959024;28;20443;-78
2022/09/19 09:45:06;;;;;;;;;;;;;;;;;;4990932;28;20421;-79
2022/09/19 09:47:36;;;;;;;;;;;;;;;;;;4991010;28;20326;-77
2022/09/19 09:50:02;;;;;;;;;;;;;;;;;;4991454;28;19920;-78
2022/09/19 09:52:28;;;;;;;;;;;;;;;;;;4990976;28;19914;-78
2022/09/19 09:57:39;;;;;;;;;;;;;;;;;;4971338;28;19929;-78
2022/09/19 10:05:36;;;;;;;;;;;;;;;;;;4991295;28;19922;-78
2022/09/19 10:08:02;;;;;;;;;;;;;;;;;;4959155;28;19983;-78
2022/09/19 10:10:28;;;;;;;;;;;;;;;;;;4991534;28;20424;-79
2022/09/19 10:12:54;;;;;;;;;;;;;;;;;;4974627;28;19918;-78
2022/09/19 10:15:21;;;;;;;;;;;;;;;;;;4974491;28;19914;-78
2022/09/19 10:17:53;;;;;;;;;;;;;;;;;;4974910;28;19918;-79
2022/09/19 10:20:22;;;;;;;;;;;;;;;;;;4974944;28;19917;-78
2022/09/19 10:22:48;;;;;;;;;;;;;;;;;;4991403;28;19918;-79
2022/09/19 10:25:15;;;;;;;;;;;;;;;;;;4992065;28;19976;-81
2022/09/19 10:27:43;;;;;;;;;;;;;;;;;;4975810;28;19918;-78
2022/09/19 10:30:27;;;;;;;;;;;;;;;;;;4990927;28;19925;-79
2022/09/19 10:32:54;;;;;;;;;;;;;;;;;;4988346;28;19913;-77
2022/09/19 10:35:34;;;;;;;;;;;;;;;;;;4978604;28;19936;-78
2022/09/19 10:37:59;;;;;;;;;;;;;;;;;;4990471;28;20009;-78
2022/09/19 10:40:25;;;;;;;;;;;;;;;;;;4988951;28;20388;-77
2022/09/19 10:42:50;;;;;;;;;;;;;;;;;;4970734;28;20377;-78
2022/09/19 10:45:25;;;;;;;;;;;;;;;;;;4991310;28;20377;-76
2022/09/19 10:47:51;;;;;;;;;;;;;;;;;;4993188;28;19914;-77
2022/09/19 10:50:19;;;;;;;;;;;;;;;;;;4992972;28;19910;-77
2022/09/19 10:52:51;;;;;;;;;;;;;;;;;;4977339;28;19964;-79
2022/09/19 10:55:22;;;;;;;;;;;;;;;;;;4995061;28;19921;-76
2022/09/19 10:57:47;;;;;;;;;;;;;;;;;;4992593;28;19924;-76
2022/09/19 11:00:18;;;;;;;;;;;;;;;;;;4989655;28;20346;-77
2022/09/19 11:02:44;;;;;;;;;;;;;;;;;;4991278;28;19939;-77
2022/09/19 11:05:09;;;;;;;;;;;;;;;;;;4977558;28;19920;-77
2022/09/19 11:07:35;;;;;;;;;;;;;;;;;;4993789;28;19973;-78
2022/09/19 11:10:10;;;;;;;;;;;;;;;;;;4993162;28;19964;-76
2022/09/19 11:12:38;;;;;;;;;;;;;;;;;;4987463;28;19918;-78
2022/09/19 11:15:04;;;;;;;;;;;;;;;;;;4988005;28;20428;-78
2022/09/19 11:17:33;;;;;;;;;;;;;;;;;;4991336;28;19922;-79
2022/09/19 11:20:01;;;;;;;;;;;;;;;;;;4992934;28;19917;-77
2022/09/19 11:22:29;;;;;;;;;;;;;;;;;;4993420;28;19917;-78
2022/09/19 11:24:54;;;;;;;;;;;;;;;;;;4993130;28;20384;-77
2022/09/19 11:27:21;;;;;;;;;;;;;;;;;;4993383;28;19918;-78
2022/09/19 11:29:49;;;;;;;;;;;;;;;;;;4993431;28;19920;-79
2022/09/19 11:32:16;;;;;;;;;;;;;;;;;;4994264;28;19913;-78
2022/09/19 11:34:43;;;;;;;;;;;;;;;;;;4993124;28;19977;-78
2022/09/19 11:37:09;;;;;;;;;;;;;;;;;;4993202;28;19913;-78
2022/09/19 11:39:35;;;;;;;;;;;;;;;;;;4992491;28;20333;-78
2022/09/19 11:42:01;;;;;;;;;;;;;;;;;;4976419;28;19910;-77
2022/09/19 11:44:27;;;;;;;;;;;;;;;;;;4975475;28;19921;-78
2022/09/19 11:46:57;;;;;;;;;;;;;;;;;;4992757;28;19914;-76
2022/09/19 11:49:23;;;;;;;;;;;;;;;;;;4992336;28;19918;-76
2022/09/19 11:51:49;;;;;;;;;;;;;;;;;;4992814;28;20399;-79
2022/09/19 11:54:17;;;;;;;;;;;;;;;;;;4992346;28;19960;-77
2022/09/19 11:56:43;;;;;;;;;;;;;;;;;;4994031;28;19921;-79
2022/09/19 11:59:10;;;;;;;;;;;;;;;;;;4984582;28;19988;-77
2022/09/19 12:01:36;;;;;;;;;;;;;;;;;;4991579;28;20332;-78
2022/09/19 12:04:02;;;;;;;;;;;;;;;;;;4990374;28;19957;-78
2022/09/19 12:06:29;;;;;;;;;;;;;;;;;;4991972;28;20020;-77
2022/09/19 12:08:58;;;;;;;;;;;;;;;;;;4976146;28;20376;-78
2022/09/19 12:11:26;;;;;;;;;;;;;;;;;;4992209;28;19914;-78
2022/09/19 12:13:53;;;;;;;;;;;;;;;;;;4993497;28;20004;-78
2022/09/19 12:16:20;;;;;;;;;;;;;;;;;;4991318;28;19918;-79
2022/09/19 12:18:52;;;;;;;;;;;;;;;;;;4993704;28;20005;-80
2022/09/19 12:21:19;;;;;;;;;;;;;;;;;;4976087;28;20381;-78
2022/09/19 12:26:35;;;;;;;;;;;;;;;;;;4975531;28;19914;-79
2022/09/19 12:29:01;;;;;;;;;;;;;;;;;;4975625;28;20404;-79
2022/09/19 12:31:27;;;;;;;;;;;;;;;;;;4990940;28;19914;-80
2022/09/19 12:33:52;;;;;;;;;;;;;;;;;;4986688;28;20430;-78
2022/09/19 12:36:20;;;;;;;;;;;;;;;;;;4990775;28;19972;-79
2022/09/19 12:38:45;;;;;;;;;;;;;;;;;;4990809;28;20411;-78
2022/09/19 12:41:13;;;;;;;;;;;;;;;;;;4974962;28;19914;-80
2022/09/19 12:43:38;;;;;;;;;;;;;;;;;;4991439;28;20052;-78
2022/09/19 12:46:08;;;;;;;;;;;;;;;;;;4975042;28;19918;-78
2022/09/19 12:48:34;;;;;;;;;;;;;;;;;;4992289;28;19914;-78
2022/09/19 12:51:18;;;;;;;;;;;;;;;;;;4992880;28;20041;-78
2022/09/19 12:53:44;;;;;;;;;;;;;;;;;;4990654;28;19946;-80
2022/09/19 12:56:13;;;;;;;;;;;;;;;;;;4988318;28;19922;-79
2022/09/19 12:58:39;;;;;;;;;;;;;;;;;;4990484;28;19925;-78
2022/09/19 13:01:08;;;;;;;;;;;;;;;;;;4993257;28;19925;-79
2022/09/19 13:03:35;;;;;;;;;;;;;;;;;;4992744;28;20059;-78
2022/09/19 13:06:01;;;;;;;;;;;;;;;;;;4999626;28;20016;-78
2022/09/19 13:08:26;;;;;;;;;;;;;;;;;;5001271;28;19969;-79
2022/09/19 13:10:51;;;;;;;;;;;;;;;;;;4992425;28;19968;-80
2022/09/19 13:13:18;;;;;;;;;;;;;;;;;;4991341;28;20329;-79
2022/09/19 13:15:44;;;;;;;;;;;;;;;;;;4988451;28;19918;-79
2022/09/19 13:23:38;;;;;;;;;;;;;;;;;;4991993;28;19918;-78
2022/09/19 13:26:03;;;;;;;;;;;;;;;;;;4992930;28;20339;-79
2022/09/19 13:28:34;;;;;;;;;;;;;;;;;;4957482;28;19914;-80
2022/09/19 13:30:59;;;;;;;;;;;;;;;;;;4990967;28;19918;-79
2022/09/19 13:33:25;;;;;;;;;;;;;;;;;;4991958;28;19910;-80
2022/09/19 13:35:51;;;;;;;;;;;;;;;;;;4989591;28;20381;-79
2022/09/19 13:38:17;;;;;;;;;;;;;;;;;;5003090;22;19941;-85
2022/09/19 13:40:45;;;;;;;;;;;;;;;;;;4997297;28;19937;-84
2022/09/19 13:43:11;;;;;;;;;;;;;;;;;;4981757;28;19986;-85
2022/09/19 13:45:37;;;;;;;;;;;;;;;;;;4978970;28;20000;-85
2022/09/19 13:48:04;;;;;;;;;;;;;;;;;;4990408;28;19949;-83
2022/09/19 13:50:31;;;;;;;;;;;;;;;;;;4991313;28;19921;-85
2022/09/19 13:53:01;;;;;;;;;;;;;;;;;;4991784;28;20005;-85
2022/09/19 13:55:26;;;;;;;;;;;;;;;;;;4993054;28;19929;-83
2022/09/19 13:57:52;;;;;;;;;;;;;;;;;;4992447;28;20025;-84
2022/09/19 14:00:18;;;;;;;;;;;;;;;;;;4975745;28;20355;-84
2022/09/19 14:02:43;;;;;;;;;;;;;;;;;;4993460;28;19920;-83
2022/09/19 14:05:10;;;;;;;;;;;;;;;;;;4980547;28;20314;-84
2022/09/19 14:07:39;;;;;;;;;;;;;;;;;;4992158;28;19960;-82
2022/09/19 14:10:06;;;;;;;;;;;;;;;;;;4993724;28;19953;-83
2022/09/19 14:12:31;;;;;;;;;;;;;;;;;;4996447;28;20392;-83
2022/09/19 14:14:57;;;;;;;;;;;;;;;;;;4998148;28;19929;-83
2022/09/19 14:17:22;;;;;;;;;;;;;;;;;;4996444;28;19925;-84
2022/09/19 14:19:53;;;;;;;;;;;;;;;;;;4991673;28;20298;-84
2022/09/19 14:22:18;;;;;;;;;;;;;;;;;;4999252;28;20369;-82
2022/09/19 14:24:43;;;;;;;;;;;;;;;;;;4996209;28;20011;-82
2022/09/19 14:27:09;;;;;;;;;;;;;;;;;;4997482;28;19918;-83
2022/09/19 14:29:34;;;;;;;;;;;;;;;;;;4995544;28;19917;-83
2022/09/19 14:31:59;;;;;;;;;;;;;;;;;;4997681;28;19959;-82
2022/09/19 14:34:25;;;;;;;;;;;;;;;;;;4994443;28;19918;-83
2022/09/19 14:36:51;;;;;;;;;;;;;;;;;;4959218;28;20274;-83
2022/09/19 14:39:16;;;;;;;;;;;;;;;;;;4988208;28;20278;-83
2022/09/19 14:41:42;;;;;;;;;;;;;;;;;;4994491;28;19953;-83
2022/09/19 14:44:08;;;;;;;;;;;;;;;;;;4994567;28;19914;-83
2022/09/19 14:46:33;;;;;;;;;;;;;;;;;;5001342;28;19986;-83
2022/09/19 14:49:02;;;;;;;;;;;;;;;;;;5002300;28;20001;-83
2022/09/19 14:51:30;;;;;;;;;;;;;;;;;;5005873;28;19920;-83
2022/09/19 14:54:02;;;;;;;;;;;;;;;;;;5000785;28;19918;-83
2022/09/19 14:56:28;;;;;;;;;;;;;;;;;;4996813;28;19922;-83
2022/09/19 14:58:54;;;;;;;;;;;;;;;;;;4982993;28;19918;-83
2022/09/19 15:01:20;;;;;;;;;;;;;;;;;;4996262;28;19918;-83
2022/09/19 15:03:45;;;;;;;;;;;;;;;;;;4986557;28;19960;-83
2022/09/19 15:06:11;;;;;;;;;;;;;;;;;;5003324;28;19913;-82
2022/09/19 15:08:37;;;;;;;;;;;;;;;;;;4995240;28;19945;-82
2022/09/19 15:11:02;;;;;;;;;;;;;;;;;;4996436;28;19924;-83
2022/09/19 15:13:27;;;;;;;;;;;;;;;;;;4993822;28;20281;-83
2022/09/19 15:15:53;;;;;;;;;;;;;;;;;;4993857;28;19959;-83
2022/09/19 15:18:19;;;;;;;;;;;;;;;;;;4976876;28;20349;-83
2022/09/19 15:20:44;;;;;;;;;;;;;;;;;;4978773;28;19914;-83
2022/09/19 15:23:10;;;;;;;;;;;;;;;;;;4995258;28;20280;-83
2022/09/19 15:25:35;;;;;;;;;;;;;;;;;;4978742;28;20289;-83
2022/09/19 15:28:02;;;;;;;;;;;;;;;;;;4993835;28;19913;-83
2022/09/19 15:30:27;;;;;;;;;;;;;;;;;;4995815;28;20370;-83
2022/09/19 15:32:53;;;;;;;;;;;;;;;;;;4994607;28;19973;-83
2022/09/19 15:35:18;;;;;;;;;;;;;;;;;;4998888;28;19914;-84
2022/09/19 15:37:44;;;;;;;;;;;;;;;;;;4984951;28;19922;-84
2022/09/19 15:40:10;;;;;;;;;;;;;;;;;;4987197;28;19968;-79
2022/09/19 15:42:35;;;;;;;;;;;;;;;;;;5000061;28;19913;-81
2022/09/19 15:45:01;;;;;;;;;;;;;;;;;;4997926;28;19922;-83
2022/09/19 15:47:26;;;;;;;;;;;;;;;;;;4998433;28;19917;-83
2022/09/19 15:49:52;;;;;;;;;;;;;;;;;;4995979;28;20436;-82
2022/09/19 15:52:18;;;;;;;;;;;;;;;;;;4992807;28;19914;-82
2022/09/19 15:54:43;;;;;;;;;;;;;;;;;;4995390;28;20006;-84
2022/09/19 15:57:09;;;;;;;;;;;;;;;;;;4985834;28;20008;-82
2022/09/19 15:59:34;;;;;;;;;;;;;;;;;;4993692;28;19914;-79
2022/09/19 16:02:07;;;;;;;;;;;;;;;;;;4993034;28;19968;-83
2022/09/19 16:04:33;;;;;;;;;;;;;;;;;;4978717;28;19953;-82
2022/09/19 16:09:42;;;;;;;;;;;;;;;;;;5000289;28;20048;-82
2022/09/19 16:12:08;;;;;;;;;;;;;;;;;;4996513;28;20653;-81
2022/09/19 16:14:33;;;;;;;;;;;;;;;;;;4998845;28;19914;-80
2022/09/19 16:16:59;;;;;;;;;;;;;;;;;;4994342;28;19925;-80
2022/09/19 16:19:24;;;;;;;;;;;;;;;;;;4995178;28;19922;-80
2022/09/19 16:21:50;;;;;;;;;;;;;;;;;;4993487;28;19969;-80
2022/09/19 16:24:15;;;;;;;;;;;;;;;;;;4993067;28;19913;-80
2022/09/19 16:26:43;;;;;;;;;;;;;;;;;;4992332;28;19918;-81
2022/09/19 16:29:09;;;;;;;;;;;;;;;;;;4993039;28;19921;-80
2022/09/19 16:31:35;;;;;;;;;;;;;;;;;;4991219;28;19950;-80
2022/09/19 16:34:01;;;;;;;;;;;;;;;;;;4992774;28;20325;-80
2022/09/19 16:36:26;;;;;;;;;;;;;;;;;;4975750;28;19957;-79
2022/09/19 16:38:52;;;;;;;;;;;;;;;;;;4975027;28;19968;-79
2022/09/19 16:41:17;;;;;;;;;;;;;;;;;;4991236;28;19925;-79
2022/09/19 16:43:45;;;;;;;;;;;;;;;;;;4992462;28;19914;-78
2022/09/19 16:46:11;;;;;;;;;;;;;;;;;;4992272;28;19925;-79
2022/09/19 16:48:36;;;;;;;;;;;;;;;;;;4991398;28;19914;-79
2022/09/19 16:51:02;;;;;;;;;;;;;;;;;;4991281;28;20372;-78
2022/09/19 16:53:27;;;;;;;;;;;;;;;;;;4991546;28;19921;-78
2022/09/19 16:55:53;;;;;;;;;;;;;;;;;;4992379;28;20372;-79
2022/09/19 16:58:18;;;;;;;;;;;;;;;;;;4982942;28;19925;-79
2022/09/19 17:00:44;;;;;;;;;;;;;;;;;;4991137;28;20032;-79
2022/09/19 17:03:10;;;;;;;;;;;;;;;;;;4992307;28;19937;-76
2022/09/19 17:05:35;;;;;;;;;;;;;;;;;;4991415;28;20381;-78
2022/09/19 17:08:01;;;;;;;;;;;;;;;;;;4990960;28;19914;-79
2022/09/19 17:10:26;;;;;;;;;;;;;;;;;;4992481;28;20320;-78
2022/09/19 17:12:52;;;;;;;;;;;;;;;;;;4991082;28;19955;-79
2022/09/19 17:15:17;;;;;;;;;;;;;;;;;;4959398;28;19914;-78
2022/09/19 17:17:43;;;;;;;;;;;;;;;;;;4992252;28;19961;-79
2022/09/19 17:20:08;;;;;;;;;;;;;;;;;;4991139;28;19971;-79
2022/09/19 17:22:34;;;;;;;;;;;;;;;;;;4991180;28;19914;-79